Time;durP1;ratioP1;P1;durP2;ratioP2;P2;SDS_P1;SDS_P2;PMS_P1;PMS_P2;Temp;Humidity;BMP_temperature;BMP_pressure;BME280_temperature;BME280_humidity;BME280_pressure;Samples;Min_cycle;Max_cycle;Signal;HPM_P1;HPM_P2
2022/07/06 00:00:12;;;;;;;1.90;1.58;;;22.90;51.30;;;;;;5037236;28;20231;-67
2022/07/06 00:02:39;;;;;;;1.50;1.40;;;23.00;51.50;;;;;;5054755;28;20208;-67
2022/07/06 00:05:07;;;;;;;1.77;1.60;;;23.00;51.60;;;;;;5037056;28;20203;-68
2022/07/06 00:07:34;;;;;;;3.33;1.67;;;23.00;51.50;;;;;;5037209;28;20222;-67
2022/07/06 00:10:02;;;;;;;1.60;1.50;;;23.00;51.60;;;;;;5037302;28;20237;-67
2022/07/06 00:12:29;;;;;;;1.90;1.70;;;22.90;51.40;;;;;;5037171;28;20586;-67
2022/07/06 00:14:56;;;;;;;2.13;1.75;;;22.90;51.40;;;;;;5055037;28;20694;-66
2022/07/06 00:17:24;;;;;;;2.80;1.50;;;22.90;51.40;;;;;;5037008;28;20195;-68
2022/07/06 00:19:51;;;;;;;1.80;1.65;;;22.90;51.30;;;;;;5036897;28;20202;-67
2022/07/06 00:22:18;;;;;;;2.50;1.75;;;22.90;51.50;;;;;;5054675;28;20218;-67
2022/07/06 00:24:45;;;;;;;2.85;1.90;;;22.90;52.10;;;;;;5036982;28;20278;-67
2022/07/06 00:27:12;;;;;;;1.80;1.70;;;22.90;51.50;;;;;;5054770;28;20214;-67
2022/07/06 00:29:43;;;;;;;2.47;1.63;;;22.90;51.50;;;;;;5055013;28;20184;-67
2022/07/06 00:32:11;;;;;;;3.17;1.70;;;22.90;51.60;;;;;;5036824;28;20266;-67
2022/07/06 00:34:40;;;;;;;3.42;1.70;;;22.80;51.60;;;;;;5036569;28;20577;-67
2022/07/06 00:37:07;;;;;;;1.70;1.60;;;22.90;51.60;;;;;;5036544;28;20249;-67
2022/07/06 00:39:34;;;;;;;2.00;1.77;;;22.90;51.60;;;;;;5036777;28;20260;-67
2022/07/06 00:42:02;;;;;;;1.90;1.80;;;22.90;51.60;;;;;;5037094;28;20219;-67
2022/07/06 00:44:30;;;;;;;2.25;1.80;;;22.80;51.60;;;;;;5036567;28;20286;-67
2022/07/06 00:46:58;;;;;;;2.00;1.80;;;22.80;51.70;;;;;;5036547;28;20652;-66
2022/07/06 00:52:11;;;;;;;1.95;1.80;;;22.80;51.60;;;;;;5035959;28;20242;-67
2022/07/06 00:54:39;;;;;;;1.70;1.60;;;22.70;51.50;;;;;;5036042;28;20672;-67
2022/07/06 00:57:06;;;;;;;2.20;1.90;;;22.70;51.60;;;;;;5035885;28;20196;-67
2022/07/06 01:06:41;;;;;;;2.10;1.90;;;22.70;51.70;;;;;;5035290;28;20203;-67
2022/07/06 01:09:09;;;;;;;1.90;1.77;;;22.70;51.80;;;;;;5016463;28;20235;-68
2022/07/06 01:11:36;;;;;;;2.05;1.83;;;22.70;52.30;;;;;;5034724;28;20266;-66
2022/07/06 01:14:04;;;;;;;2.40;1.60;;;22.70;51.60;;;;;;5015981;28;20214;-68
2022/07/06 01:16:31;;;;;;;2.10;2.00;;;22.70;51.60;;;;;;5016768;28;20682;-67
2022/07/06 01:18:58;;;;;;;2.10;1.80;;;22.70;51.80;;;;;;5017704;28;20291;-68
2022/07/06 01:21:26;;;;;;;1.92;1.70;;;22.70;51.70;;;;;;5018146;28;20648;-67
2022/07/06 01:23:53;;;;;;;2.20;2.00;;;22.60;51.70;;;;;;5016761;28;20235;-68
2022/07/06 01:26:21;;;;;;;1.83;1.73;;;22.60;51.60;;;;;;5016357;28;20207;-67
2022/07/06 01:28:48;;;;;;;2.08;1.90;;;22.60;51.70;;;;;;5016148;28;20204;-67
2022/07/06 01:31:16;;;;;;;1.80;1.70;;;22.60;51.80;;;;;;5015976;28;20206;-67
2022/07/06 01:33:44;;;;;;;1.88;1.77;;;22.60;51.70;;;;;;5015735;28;20216;-67
2022/07/06 01:36:11;;;;;;;1.75;1.65;;;22.60;51.70;;;;;;5033734;28;20188;-67
2022/07/06 01:38:46;;;;;;;1.92;1.80;;;22.60;51.60;;;;;;5015758;28;20581;-67
2022/07/06 01:41:13;;;;;;;2.30;2.10;;;22.60;51.50;;;;;;5015928;28;20659;-66
2022/07/06 01:43:41;;;;;;;1.80;1.70;;;22.60;52.30;;;;;;5015990;28;20299;-67
2022/07/06 01:46:08;;;;;;;1.88;1.77;;;22.60;51.70;;;;;;5015744;28;20738;-67
2022/07/06 01:48:35;;;;;;;2.00;1.90;;;22.60;51.70;;;;;;5015708;28;20200;-67
2022/07/06 01:51:02;;;;;;;2.63;1.98;;;22.50;51.60;;;;;;5015624;28;20621;-67
2022/07/06 01:53:29;;;;;;;2.50;2.05;;;22.50;51.70;;;;;;5015540;28;20212;-67
2022/07/06 01:55:58;;;;;;;1.98;1.88;;;22.50;51.60;;;;;;5015948;28;20200;-67
2022/07/06 01:58:26;;;;;;;2.00;1.90;;;22.50;51.50;;;;;;5015890;28;20262;-67
2022/07/06 02:00:53;;;;;;;1.90;1.80;;;22.50;51.70;;;;;;5015452;28;20292;-67
2022/07/06 02:03:20;;;;;;;2.08;1.98;;;22.50;51.70;;;;;;5015296;28;20226;-67
2022/07/06 02:05:47;;;;;;;1.92;1.83;;;22.50;51.70;;;;;;5015407;28;20192;-67
2022/07/06 02:08:14;;;;;;;3.65;2.10;;;22.50;51.70;;;;;;5016655;28;20719;-67
2022/07/06 02:10:41;;;;;;;2.38;1.98;;;22.50;51.70;;;;;;5033783;28;20562;-66
2022/07/06 02:13:09;;;;;;;3.20;2.08;;;22.40;51.50;;;;;;5015834;28;20307;-67
2022/07/06 02:15:36;;;;;;;2.38;2.10;;;22.40;51.50;;;;;;5015502;28;20200;-67
2022/07/06 02:18:03;;;;;;;2.15;2.00;;;22.50;51.70;;;;;;5015241;28;20291;-68
2022/07/06 02:20:30;;;;;;;2.25;2.05;;;22.40;51.50;;;;;;5034076;28;20192;-67
2022/07/06 02:22:57;;;;;;;2.55;2.10;;;22.40;51.70;;;;;;5019026;28;20223;-67
2022/07/06 02:25:25;;;;;;;2.60;2.08;;;22.40;51.60;;;;;;5019214;28;20200;-67
2022/07/06 02:27:52;;;;;;;2.15;1.98;;;22.40;51.80;;;;;;5018798;28;20290;-67
2022/07/06 02:30:22;;;;;;;2.20;2.00;;;22.40;52.00;;;;;;5019472;28;20192;-67
2022/07/06 02:32:49;;;;;;;2.17;2.00;;;22.40;51.60;;;;;;5019199;28;20216;-67
2022/07/06 02:35:16;;;;;;;2.00;1.90;;;22.40;51.60;;;;;;5019022;28;20192;-67
2022/07/06 02:37:44;;;;;;;2.33;1.80;;;22.40;51.70;;;;;;5019552;28;20196;-67
2022/07/06 02:40:12;;;;;;;3.45;2.00;;;22.40;51.80;;;;;;5018567;28;20207;-67
2022/07/06 02:42:39;;;;;;;2.00;1.90;;;22.30;51.70;;;;;;5018324;28;20735;-67
2022/07/06 02:45:08;;;;;;;2.00;1.90;;;22.30;51.50;;;;;;5018682;28;20235;-68
2022/07/06 02:47:37;;;;;;;2.10;2.00;;;22.30;51.50;;;;;;5036168;28;20188;-68
2022/07/06 02:50:05;;;;;;;2.00;1.90;;;22.30;51.60;;;;;;5018623;28;20238;-67
2022/07/06 02:52:32;;;;;;;2.10;2.00;;;22.30;51.70;;;;;;5018526;28;20235;-67
2022/07/06 02:55:01;;;;;;;2.25;2.05;;;22.20;51.60;;;;;;5018292;28;20288;-65
2022/07/06 02:57:29;;;;;;;2.17;1.98;;;22.30;51.90;;;;;;5018286;28;20266;-67
2022/07/06 02:59:57;;;;;;;2.78;2.15;;;22.30;51.90;;;;;;5018109;28;20195;-66
2022/07/06 03:02:24;;;;;;;3.13;2.00;;;22.20;51.80;;;;;;5018040;28;20323;-67
2022/07/06 03:04:53;;;;;;;2.40;2.20;;;22.20;51.70;;;;;;5018179;28;20648;-67
2022/07/06 03:07:21;;;;;;;2.40;2.08;;;22.20;51.70;;;;;;5018030;28;20578;-66
2022/07/06 03:09:48;;;;;;;2.58;1.90;;;22.20;51.90;;;;;;5018041;28;20199;-67
2022/07/06 03:12:15;;;;;;;2.33;2.13;;;22.20;51.90;;;;;;5018038;28;20718;-67
2022/07/06 03:14:43;;;;;;;3.20;2.08;;;22.20;51.70;;;;;;5018303;28;20623;-67
2022/07/06 03:17:10;;;;;;;3.00;2.05;;;22.20;51.50;;;;;;5018031;28;20219;-66
2022/07/06 03:19:37;;;;;;;2.75;2.10;;;22.20;51.60;;;;;;5018288;28;20188;-67
2022/07/06 03:22:06;;;;;;;2.10;1.90;;;22.20;51.50;;;;;;5018287;28;20192;-67
2022/07/06 03:24:33;;;;;;;2.17;2.08;;;22.20;51.50;;;;;;5035626;28;20200;-67
2022/07/06 03:27:00;;;;;;;2.30;2.10;;;22.20;51.60;;;;;;5017910;28;20204;-67
2022/07/06 03:29:27;;;;;;;2.70;2.33;;;22.30;51.60;;;;;;5017886;28;20672;-67
2022/07/06 03:31:56;;;;;;;2.30;2.08;;;22.20;51.30;;;;;;5017449;28;20262;-66
2022/07/06 03:34:25;;;;;;;2.28;2.13;;;22.30;51.40;;;;;;5017580;28;20192;-67
2022/07/06 03:36:52;;;;;;;1.90;1.73;;;22.30;51.30;;;;;;5017602;28;20192;-67
2022/07/06 03:39:21;;;;;;;2.20;2.00;;;22.30;51.20;;;;;;5035286;28;20200;-67
2022/07/06 03:41:48;;;;;;;2.05;1.95;;;22.30;51.20;;;;;;5017634;28;20192;-66
2022/07/06 03:44:15;;;;;;;2.15;1.95;;;22.30;51.20;;;;;;5017455;28;20224;-67
2022/07/06 03:46:42;;;;;;;3.08;2.08;;;22.30;51.20;;;;;;5018366;28;20246;-67
2022/07/06 03:49:10;;;;;;;2.03;1.80;;;22.30;51.30;;;;;;5017419;28;20200;-68
2022/07/06 03:51:37;;;;;;;3.15;2.22;;;22.30;51.20;;;;;;5017445;28;20196;-66
2022/07/06 03:54:04;;;;;;;1.77;1.67;;;22.30;51.00;;;;;;5017344;28;20222;-67
2022/07/06 03:56:33;;;;;;;2.00;1.90;;;22.30;51.10;;;;;;5017362;28;20196;-67
2022/07/06 03:59:05;;;;;;;2.08;1.88;;;22.30;51.20;;;;;;5017237;28;20200;-66
2022/07/06 04:01:36;;;;;;;3.20;2.10;;;22.30;51.00;;;;;;5017357;28;20566;-66
2022/07/06 04:04:04;;;;;;;1.90;1.80;;;22.30;51.10;;;;;;5017498;28;20216;-67
2022/07/06 04:06:34;;;;;;;1.95;1.83;;;22.30;51.10;;;;;;5017661;28;20200;-67
2022/07/06 04:09:02;;;;;;;2.35;1.80;;;22.30;51.10;;;;;;5017517;28;20675;-68
2022/07/06 04:11:30;;;;;;;2.03;1.75;;;22.30;51.10;;;;;;5017422;28;20200;-68
2022/07/06 04:13:59;;;;;;;2.22;2.03;;;22.30;51.20;;;;;;5017306;28;20208;-67
2022/07/06 04:16:26;;;;;;;2.17;1.80;;;22.30;51.20;;;;;;5016962;28;20196;-67
2022/07/06 04:18:53;;;;;;;2.13;1.80;;;22.30;51.30;;;;;;5017983;28;20196;-68
2022/07/06 04:21:20;;;;;;;2.70;1.80;;;22.30;51.30;;;;;;5017815;28;20199;-67
2022/07/06 04:23:48;;;;;;;2.47;2.28;;;22.30;51.30;;;;;;5017872;28;20223;-67
2022/07/06 04:26:15;;;;;;;2.03;1.80;;;22.30;51.30;;;;;;5017633;28;20200;-66
2022/07/06 04:28:42;;;;;;;1.77;1.67;;;22.30;51.40;;;;;;5017188;28;20196;-67
2022/07/06 04:31:14;;;;;;;1.95;1.70;;;22.30;51.40;;;;;;5041593;28;20243;-69
2022/07/06 04:33:44;;;;;;;2.30;1.80;;;22.30;51.30;;;;;;5041983;28;20192;-68
2022/07/06 04:36:12;;;;;;;2.88;2.10;;;22.30;51.30;;;;;;5033347;28;20196;-66
2022/07/06 04:38:43;;;;;;;2.72;2.30;;;22.30;51.30;;;;;;5018690;28;20199;-67
2022/07/06 04:41:11;;;;;;;3.08;2.10;;;22.40;51.70;;;;;;5018050;28;20200;-67
2022/07/06 04:43:39;;;;;;;4.78;2.25;;;22.40;50.40;;;;;;5016973;28;20277;-64
2022/07/06 04:46:06;;;;;;;2.50;2.00;;;22.40;49.60;;;;;;5018660;28;20195;-67
2022/07/06 04:48:39;;;;;;;4.55;2.13;;;22.40;49.50;;;;;;5017253;28;20196;-66
2022/07/06 04:51:07;;;;;;;2.15;1.90;;;22.30;49.40;;;;;;5016958;28;20196;-67
2022/07/06 04:53:36;;;;;;;2.63;2.10;;;22.30;49.70;;;;;;5017590;28;20634;-67
2022/07/06 04:56:04;;;;;;;3.28;2.20;;;22.30;49.80;;;;;;5017339;28;20656;-67
2022/07/06 04:58:33;;;;;;;3.53;2.00;;;22.30;49.90;;;;;;5017238;28;20200;-67
2022/07/06 05:01:00;;;;;;;2.42;2.20;;;22.30;50.10;;;;;;5016850;28;20206;-66
2022/07/06 05:03:28;;;;;;;3.83;2.20;;;22.30;50.00;;;;;;5016725;28;20576;-66
2022/07/06 05:05:56;;;;;;;4.75;2.30;;;22.30;50.20;;;;;;5016145;28;20219;-66
2022/07/06 05:08:24;;;;;;;2.92;2.10;;;22.30;50.40;;;;;;5016391;28;20219;-66
2022/07/06 05:10:51;;;;;;;3.78;2.63;;;22.30;50.00;;;;;;5016128;28;20200;-66
2022/07/06 05:13:19;;;;;;;4.22;2.50;;;22.40;49.00;;;;;;5016467;28;20302;-66
2022/07/06 05:15:46;;;;;;;2.83;2.30;;;22.40;48.40;;;;;;5033810;28;20188;-67
2022/07/06 05:18:13;;;;;;;4.30;2.20;;;22.60;48.60;;;;;;5033549;28;20188;-67
2022/07/06 05:20:42;;;;;;;2.67;2.20;;;22.70;48.70;;;;;;5015873;28;20258;-67
2022/07/06 05:23:11;;;;;;;3.75;2.00;;;22.90;48.80;;;;;;5015761;28;20211;-66
2022/07/06 05:25:38;;;;;;;3.05;1.75;;;23.10;48.70;;;;;;5015866;28;20196;-67
2022/07/06 05:28:05;;;;;;;3.03;2.17;;;23.30;48.40;;;;;;5015728;28;20253;-66
2022/07/06 05:30:32;;;;;;;2.53;2.20;;;23.50;48.10;;;;;;5015712;28;20572;-67
2022/07/06 05:33:00;;;;;;;2.22;2.00;;;23.60;47.60;;;;;;5015621;28;20234;-67
2022/07/06 05:35:27;;;;;;;3.38;2.13;;;23.80;47.20;;;;;;5015724;28;20188;-67
2022/07/06 05:37:55;;;;;;;2.50;2.05;;;23.90;47.00;;;;;;5015687;28;20279;-67
2022/07/06 05:40:23;;;;;;;4.63;2.10;;;24.00;46.60;;;;;;5015631;28;20626;-67
2022/07/06 05:42:51;;;;;;;3.08;2.13;;;24.20;46.60;;;;;;5016011;28;20220;-67
2022/07/06 05:45:18;;;;;;;3.55;2.25;;;24.20;46.10;;;;;;5015949;28;20208;-67
2022/07/06 05:50:32;;;;;;;3.08;2.00;;;24.50;46.10;;;;;;5016000;28;20215;-67
2022/07/06 05:53:00;;;;;;;3.15;1.90;;;24.70;45.90;;;;;;5015528;28;20629;-66
2022/07/06 05:55:31;;;;;;;3.25;2.00;;;24.70;45.80;;;;;;5018221;28;20199;-67
2022/07/06 05:58:00;;;;;;;3.13;2.00;;;24.90;45.70;;;;;;5019545;28;20192;-68
2022/07/06 06:00:29;;;;;;;3.08;2.10;;;24.90;45.50;;;;;;5019475;28;20192;-67
2022/07/06 06:03:01;;;;;;;2.45;2.17;;;25.00;45.30;;;;;;5019318;28;20224;-67
2022/07/06 06:05:29;;;;;;;2.75;1.80;;;25.20;45.30;;;;;;5019701;28;20218;-67
2022/07/06 06:08:01;;;;;;;2.85;1.90;;;25.30;45.00;;;;;;5019719;28;20621;-67
2022/07/06 06:10:30;;;;;;;2.00;1.80;;;25.40;44.90;;;;;;5019751;28;20199;-67
2022/07/06 06:13:00;;;;;;;2.15;1.95;;;25.50;44.70;;;;;;5019357;28;20696;-66
2022/07/06 06:15:28;;;;;;;3.03;1.75;;;25.60;44.50;;;;;;5019057;28;20202;-67
2022/07/06 06:17:55;;;;;;;2.53;1.95;;;25.70;44.50;;;;;;5019127;28;20208;-67
2022/07/06 06:20:22;;;;;;;2.30;1.80;;;25.70;44.30;;;;;;5019040;28;20191;-67
2022/07/06 06:22:50;;;;;;;1.88;1.77;;;25.80;44.20;;;;;;5036878;28;20236;-67
2022/07/06 06:25:18;;;;;;;2.05;1.80;;;25.90;44.20;;;;;;5018790;28;20216;-67
2022/07/06 06:27:47;;;;;;;1.85;1.55;;;25.90;44.00;;;;;;5019263;28;20200;-67
2022/07/06 06:30:14;;;;;;;2.17;2.00;;;26.00;44.00;;;;;;5036879;28;20188;-67
2022/07/06 06:32:41;;;;;;;2.05;1.70;;;26.10;43.80;;;;;;5018820;28;20224;-67
2022/07/06 06:35:09;;;;;;;1.90;1.60;;;26.20;43.70;;;;;;5019055;28;20203;-67
2022/07/06 06:37:36;;;;;;;2.00;1.85;;;26.20;43.60;;;;;;5019504;28;20568;-67
2022/07/06 06:40:03;;;;;;;2.08;1.80;;;26.30;43.40;;;;;;5036798;28;20192;-67
2022/07/06 06:42:30;;;;;;;2.38;1.75;;;26.40;43.20;;;;;;5036258;28;20223;-67
2022/07/06 06:45:00;;;;;;;2.00;1.80;;;26.50;43.00;;;;;;5018476;28;20699;-67
2022/07/06 06:47:27;;;;;;;2.10;1.90;;;26.60;42.90;;;;;;5018625;28;20231;-67
2022/07/06 06:49:54;;;;;;;1.85;1.75;;;26.70;42.70;;;;;;5018855;28;20200;-68
2022/07/06 06:52:21;;;;;;;3.15;1.90;;;26.80;42.60;;;;;;5036684;28;20259;-67
2022/07/06 06:54:48;;;;;;;1.80;1.70;;;26.80;42.50;;;;;;5018392;28;20196;-67
2022/07/06 06:57:15;;;;;;;1.90;1.63;;;26.90;42.40;;;;;;5018609;28;20246;-67
2022/07/06 06:59:42;;;;;;;1.73;1.63;;;27.00;42.30;;;;;;5018437;28;20196;-67
2022/07/06 07:02:11;;;;;;;2.00;1.90;;;27.00;42.10;;;;;;5018338;28;20642;-67
2022/07/06 07:04:38;;;;;;;2.20;1.60;;;27.10;42.00;;;;;;5036107;28;20212;-66
2022/07/06 07:07:05;;;;;;;2.42;1.70;;;27.10;41.90;;;;;;5035015;28;20198;-66
2022/07/06 07:09:32;;;;;;;2.20;1.73;;;27.20;42.00;;;;;;5036077;28;20192;-67
2022/07/06 07:11:58;;;;;;;2.00;1.80;;;27.20;41.90;;;;;;5036124;28;20195;-67
2022/07/06 07:14:27;;;;;;;3.22;1.92;;;27.30;41.70;;;;;;5018121;28;20223;-67
2022/07/06 07:16:54;;;;;;;3.05;1.90;;;27.30;41.60;;;;;;5018149;28;20244;-67
2022/07/06 07:19:22;;;;;;;2.05;1.90;;;27.40;41.40;;;;;;5018072;28;20200;-67
2022/07/06 07:21:49;;;;;;;1.90;1.70;;;27.50;41.40;;;;;;5035963;28;20194;-67
2022/07/06 07:24:17;;;;;;;2.20;1.60;;;27.50;41.30;;;;;;5018202;28;20220;-67
2022/07/06 07:26:44;;;;;;;1.75;1.65;;;27.60;41.10;;;;;;5036185;28;20251;-67
2022/07/06 07:29:11;;;;;;;2.80;1.80;;;27.60;41.00;;;;;;5018473;28;20199;-68
2022/07/06 07:31:38;;;;;;;2.72;1.80;;;27.70;41.00;;;;;;5035759;28;20267;-67
2022/07/06 07:34:05;;;;;;;2.22;1.83;;;27.70;40.90;;;;;;5035531;28;20254;-67
2022/07/06 07:36:33;;;;;;;1.95;1.75;;;27.70;40.80;;;;;;5017777;28;20668;-67
2022/07/06 07:39:00;;;;;;;2.15;1.60;;;27.80;40.80;;;;;;5017615;28;20671;-67
2022/07/06 07:41:27;;;;;;;1.70;1.60;;;27.80;40.80;;;;;;5017779;28;20196;-68
2022/07/06 07:43:55;;;;;;;1.70;1.60;;;27.90;40.80;;;;;;5035208;28;20650;-67
2022/07/06 07:46:22;;;;;;;1.65;1.55;;;27.90;40.70;;;;;;5017564;28;20627;-67
2022/07/06 07:48:49;;;;;;;1.90;1.80;;;27.90;40.60;;;;;;5035137;28;20192;-67
2022/07/06 07:51:18;;;;;;;1.65;1.50;;;27.90;40.60;;;;;;5017507;28;20199;-67
2022/07/06 07:53:47;;;;;;;2.13;1.60;;;27.90;40.60;;;;;;5017374;28;20218;-67
2022/07/06 07:56:14;;;;;;;2.83;1.80;;;27.90;40.50;;;;;;5035081;28;20195;-67
2022/07/06 07:58:40;;;;;;;1.95;1.77;;;28.00;40.50;;;;;;5035101;28;20195;-68
2022/07/06 08:01:07;;;;;;;1.80;1.70;;;28.00;40.50;;;;;;5017225;28;20282;-68
2022/07/06 08:03:35;;;;;;;2.13;1.60;;;28.00;40.50;;;;;;5019144;28;20223;-69
2022/07/06 08:06:02;;;;;;;1.73;1.63;;;28.00;40.40;;;;;;5034846;28;20246;-68
2022/07/06 08:08:29;;;;;;;1.63;1.52;;;28.00;40.40;;;;;;5017337;28;20207;-68
2022/07/06 08:10:57;;;;;;;1.70;1.60;;;28.10;40.40;;;;;;5017432;28;20578;-68
2022/07/06 08:13:24;;;;;;;2.05;1.60;;;28.00;40.40;;;;;;5038745;28;20239;-68
2022/07/06 08:15:52;;;;;;;1.70;1.60;;;28.00;40.40;;;;;;5017347;28;20656;-67
2022/07/06 08:18:19;;;;;;;2.10;1.70;;;28.10;40.40;;;;;;5016137;28;20278;-67
2022/07/06 08:20:45;;;;;;;1.60;1.50;;;28.10;40.40;;;;;;5016885;28;20199;-68
2022/07/06 08:23:13;;;;;;;2.17;1.77;;;28.10;40.30;;;;;;5016863;28;20215;-67
2022/07/06 08:25:40;;;;;;;2.13;1.70;;;28.10;40.30;;;;;;5016962;28;20215;-67
2022/07/06 08:28:08;;;;;;;2.28;1.40;;;28.10;40.40;;;;;;5034544;28;20195;-67
2022/07/06 08:30:35;;;;;;;1.63;1.52;;;28.10;41.00;;;;;;5021950;28;20205;-65
2022/07/06 08:33:02;;;;;;;1.70;1.60;;;28.10;40.30;;;;;;5020585;28;20595;-67
2022/07/06 08:35:30;;;;;;;1.70;1.60;;;28.10;40.40;;;;;;5042761;28;20188;-67
2022/07/06 08:37:57;;;;;;;1.70;1.58;;;28.10;40.40;;;;;;5036627;28;20191;-67
2022/07/06 08:40:26;;;;;;;1.80;1.67;;;28.10;40.30;;;;;;5017778;28;20199;-67
2022/07/06 08:42:54;;;;;;;1.70;1.60;;;28.10;40.40;;;;;;5018348;28;20306;-67
2022/07/06 08:45:23;;;;;;;1.50;1.40;;;28.10;40.40;;;;;;5017726;28;20208;-67
2022/07/06 08:47:50;;;;;;;1.48;1.38;;;28.10;40.40;;;;;;5035310;28;20194;-67
2022/07/06 08:50:17;;;;;;;1.70;1.50;;;28.10;40.50;;;;;;5016809;28;20214;-65
2022/07/06 08:52:44;;;;;;;1.70;1.60;;;28.10;40.50;;;;;;5034323;28;20233;-67
2022/07/06 08:55:11;;;;;;;2.05;1.80;;;28.10;40.60;;;;;;5017483;28;20196;-67
2022/07/06 08:57:39;;;;;;;2.05;1.70;;;28.10;40.60;;;;;;5017509;28;20571;-67
2022/07/06 09:00:08;;;;;;;2.00;1.80;;;28.10;40.60;;;;;;5016655;28;20204;-67
2022/07/06 09:02:36;;;;;;;1.70;1.60;;;28.10;40.70;;;;;;5016567;28;20258;-67
2022/07/06 09:05:04;;;;;;;1.60;1.50;;;28.10;40.60;;;;;;5016061;28;20219;-67
2022/07/06 09:07:31;;;;;;;1.70;1.60;;;28.10;40.50;;;;;;5033690;28;20250;-67
2022/07/06 09:09:59;;;;;;;2.25;1.50;;;28.20;40.50;;;;;;5033718;28;20193;-67
2022/07/06 09:12:27;;;;;;;1.67;1.58;;;28.20;40.40;;;;;;5033589;28;20280;-67
2022/07/06 09:14:55;;;;;;;1.65;1.55;;;28.20;40.40;;;;;;5015904;28;20226;-67
2022/07/06 09:17:22;;;;;;;1.92;1.70;;;28.30;40.50;;;;;;5015883;28;20644;-67
2022/07/06 09:19:50;;;;;;;1.60;1.50;;;28.20;40.40;;;;;;5015888;28;20207;-67
2022/07/06 09:22:28;;;;;;;1.70;1.60;;;28.30;40.40;;;;;;5015760;28;20223;-66
2022/07/06 09:24:56;;;;;;;1.70;1.60;;;28.30;40.50;;;;;;5016120;28;20599;-67
2022/07/06 09:27:23;;;;;;;1.60;1.50;;;28.30;40.50;;;;;;5015705;28;20230;-67
2022/07/06 09:29:50;;;;;;;1.98;1.58;;;28.30;40.50;;;;;;5033099;28;20187;-67
2022/07/06 09:32:20;;;;;;;1.90;1.70;;;28.30;40.50;;;;;;5015682;28;20225;-66
2022/07/06 09:34:47;;;;;;;1.92;1.75;;;28.30;40.50;;;;;;5032324;28;20636;-67
2022/07/06 09:37:16;;;;;;;1.70;1.60;;;28.30;40.50;;;;;;5015464;28;20202;-67
2022/07/06 09:39:44;;;;;;;1.77;1.50;;;28.30;40.50;;;;;;5033543;28;20293;-67
2022/07/06 09:42:11;;;;;;;1.60;1.50;;;28.20;40.50;;;;;;5015534;28;20211;-67
2022/07/06 09:44:39;;;;;;;1.60;1.50;;;28.20;40.50;;;;;;5033206;28;20187;-67
2022/07/06 09:47:07;;;;;;;1.70;1.60;;;28.20;40.70;;;;;;5033306;28;20538;-67
2022/07/06 09:49:34;;;;;;;1.77;1.67;;;28.20;40.70;;;;;;5015660;28;20597;-67
2022/07/06 09:52:02;;;;;;;1.67;1.58;;;28.20;40.70;;;;;;5016041;28;20200;-67
2022/07/06 09:54:30;;;;;;;1.42;1.33;;;28.20;40.80;;;;;;5015732;28;20196;-67
2022/07/06 09:56:59;;;;;;;1.50;1.40;;;28.20;40.90;;;;;;5016482;28;20195;-67
2022/07/06 09:59:28;;;;;;;1.60;1.50;;;28.10;40.90;;;;;;5016126;28;20233;-67
2022/07/06 10:01:57;;;;;;;1.70;1.60;;;28.10;41.60;;;;;;5035625;28;20599;-69
2022/07/06 10:04:24;;;;;;;1.70;1.60;;;28.00;41.00;;;;;;5019302;28;20195;-67
2022/07/06 10:06:51;;;;;;;1.50;1.40;;;28.00;41.10;;;;;;5016613;28;20215;-67
2022/07/06 10:09:19;;;;;;;1.73;1.63;;;28.00;41.20;;;;;;5015802;28;20282;-67
2022/07/06 10:11:50;;;;;;;1.48;1.38;;;28.00;41.20;;;;;;5015688;28;20199;-67
2022/07/06 10:14:19;;;;;;;1.70;1.60;;;28.00;41.30;;;;;;5015334;28;20265;-66
2022/07/06 10:16:46;;;;;;;1.95;1.52;;;28.00;41.40;;;;;;5033006;28;20195;-67
2022/07/06 10:19:14;;;;;;;1.60;1.50;;;27.90;41.30;;;;;;5033064;28;20214;-67
2022/07/06 10:21:41;;;;;;;1.70;1.60;;;27.90;41.50;;;;;;5033309;28;20187;-67
2022/07/06 10:24:09;;;;;;;1.60;1.50;;;27.80;41.60;;;;;;5015079;28;20223;-67
2022/07/06 10:26:36;;;;;;;1.67;1.58;;;27.70;41.90;;;;;;5033035;28;20583;-67
2022/07/06 10:29:05;;;;;;;1.60;1.50;;;27.70;42.00;;;;;;5015269;28;20279;-67
2022/07/06 10:31:33;;;;;;;1.90;1.77;;;27.70;42.20;;;;;;5015293;28;20210;-67
2022/07/06 10:34:00;;;;;;;1.85;1.60;;;27.60;42.20;;;;;;5032714;28;20207;-66
2022/07/06 10:36:28;;;;;;;1.60;1.50;;;27.60;42.20;;;;;;5015153;28;20668;-67
2022/07/06 10:38:55;;;;;;;1.60;1.50;;;27.50;42.30;;;;;;5015325;28;20640;-67
2022/07/06 10:41:30;;;;;;;1.50;1.40;;;27.50;42.50;;;;;;5015924;28;20191;-67
2022/07/06 10:43:58;;;;;;;1.83;1.50;;;27.40;42.50;;;;;;5018736;28;20246;-67
2022/07/06 10:46:29;;;;;;;1.50;1.40;;;27.40;42.70;;;;;;5018564;28;20222;-67
2022/07/06 10:48:56;;;;;;;1.63;1.50;;;27.40;42.70;;;;;;5036245;28;20202;-67
2022/07/06 10:51:24;;;;;;;1.55;1.45;;;27.30;42.80;;;;;;5018466;28;20211;-69
2022/07/06 10:53:56;;;;;;;1.73;1.63;;;27.30;43.40;;;;;;5018397;28;20212;-67
2022/07/06 10:56:32;;;;;;;2.35;1.60;;;27.30;42.90;;;;;;5019502;28;20179;-67
2022/07/06 10:59:03;;;;;;;1.65;1.40;;;27.30;43.00;;;;;;5018705;28;20282;-66
2022/07/06 11:01:31;;;;;;;1.70;1.60;;;27.20;43.70;;;;;;5018440;28;20221;-66
2022/07/06 11:04:06;;;;;;;1.67;1.58;;;27.20;43.00;;;;;;5018256;28;20277;-67
2022/07/06 11:06:34;;;;;;;1.55;1.45;;;27.20;43.20;;;;;;5035793;28;20207;-66
2022/07/06 11:09:01;;;;;;;1.70;1.60;;;27.20;43.30;;;;;;5018080;28;20241;-67
2022/07/06 11:11:40;;;;;;;1.50;1.40;;;27.20;43.40;;;;;;5018074;28;20199;-67
2022/07/06 11:14:08;;;;;;;1.60;1.50;;;27.10;43.50;;;;;;5018304;28;20250;-67
2022/07/06 11:16:37;;;;;;;1.45;1.35;;;27.10;43.40;;;;;;5017989;28;20660;-67
2022/07/06 11:19:07;;;;;;;1.40;1.30;;;27.10;43.50;;;;;;5018016;28;20757;-67
2022/07/06 11:21:44;;;;;;;1.45;1.40;;;27.10;43.70;;;;;;5017938;28;20196;-67
2022/07/06 11:24:13;;;;;;;1.65;1.55;;;27.00;43.70;;;;;;5017899;28;20309;-67
2022/07/06 11:26:40;;;;;;;1.50;1.40;;;27.00;43.80;;;;;;5035460;28;20204;-67
2022/07/06 11:29:08;;;;;;;1.65;1.55;;;27.00;43.90;;;;;;5018068;28;20203;-67
2022/07/06 11:31:37;;;;;;;1.50;1.40;;;26.90;43.90;;;;;;5017837;28;20188;-67
2022/07/06 11:34:04;;;;;;;1.63;1.52;;;27.00;44.00;;;;;;5017770;28;20250;-67
2022/07/06 11:36:31;;;;;;;1.70;1.60;;;27.00;44.00;;;;;;5035386;28;20180;-68
2022/07/06 11:38:58;;;;;;;1.52;1.42;;;27.00;44.10;;;;;;5018172;28;20245;-67
2022/07/06 11:41:26;;;;;;;1.63;1.52;;;26.90;44.10;;;;;;5017535;28;20297;-66
2022/07/06 11:43:53;;;;;;;1.73;1.63;;;26.90;44.10;;;;;;5017529;28;20215;-67
2022/07/06 11:46:27;;;;;;;1.60;1.50;;;26.90;44.10;;;;;;5017621;28;20595;-67
2022/07/06 11:48:57;;;;;;;1.38;1.27;;;26.90;44.20;;;;;;5017619;28;20204;-67
2022/07/06 11:51:24;;;;;;;1.80;1.50;;;26.90;44.30;;;;;;5035110;28;20202;-67
2022/07/06 11:53:53;;;;;;;1.70;1.60;;;26.90;44.40;;;;;;5017114;28;20570;-68
2022/07/06 11:56:25;;;;;;;1.50;1.40;;;26.90;44.50;;;;;;5017832;28;20370;-67
2022/07/06 11:58:52;;;;;;;1.50;1.40;;;26.80;44.40;;;;;;5017290;28;20262;-67
2022/07/06 12:01:19;;;;;;;1.80;1.70;;;26.80;44.50;;;;;;5059258;22;20238;-74
2022/07/06 12:03:47;;;;;;;1.60;1.50;;;26.80;44.70;;;;;;5017719;28;20203;-75
2022/07/06 12:06:17;;;;;;;1.52;1.42;;;26.70;44.70;;;;;;5035120;28;20242;-74
2022/07/06 12:08:45;;;;;;;1.60;1.50;;;26.70;44.80;;;;;;5035015;28;20601;-74
2022/07/06 12:11:18;;;;;;;1.50;1.40;;;26.70;44.90;;;;;;5017045;28;20239;-74
2022/07/06 12:13:45;;;;;;;1.42;1.30;;;26.70;45.00;;;;;;5017271;28;20200;-75
2022/07/06 12:16:15;;;;;;;1.38;1.30;;;26.60;45.00;;;;;;5017437;28;20569;-74
2022/07/06 12:18:42;;;;;;;1.60;1.50;;;26.60;45.10;;;;;;5035239;28;20191;-74
2022/07/06 12:21:10;;;;;;;1.98;1.50;;;26.60;45.20;;;;;;5017337;28;20212;-74
2022/07/06 12:23:42;;;;;;;1.52;1.42;;;26.50;45.20;;;;;;5017136;28;20230;-74
2022/07/06 12:26:10;;;;;;;1.63;1.52;;;26.50;45.30;;;;;;5017214;28;20215;-74
2022/07/06 12:28:37;;;;;;;1.40;1.30;;;26.50;45.30;;;;;;5017512;28;20195;-75
2022/07/06 12:31:04;;;;;;;1.50;1.40;;;26.60;45.40;;;;;;5034909;28;20219;-74
2022/07/06 12:33:31;;;;;;;1.50;1.40;;;26.60;45.30;;;;;;5017636;28;20199;-75
2022/07/06 12:35:58;;;;;;;1.60;1.50;;;26.60;45.30;;;;;;5021532;28;20215;-74
2022/07/06 12:38:26;;;;;;;1.70;1.60;;;26.60;45.20;;;;;;5034307;28;20184;-74
2022/07/06 12:40:54;;;;;;;1.70;1.60;;;26.60;45.20;;;;;;5023876;28;20265;-74
2022/07/06 12:43:38;;;;;;;1.50;1.40;;;26.60;45.20;;;;;;5017493;28;20573;-74
2022/07/06 12:46:24;;;;;;;1.70;1.60;;;26.70;45.30;;;;;;5016879;28;20219;-74
2022/07/06 12:51:58;;;;;;;1.40;1.30;;;26.60;45.10;;;;;;5189905;22;20266;-73
2022/07/06 12:54:26;;;;;;;1.67;1.58;;;26.60;45.10;;;;;;5217367;23;20244;-75
2022/07/06 12:59:26;;;;;;;1.70;1.60;;;26.60;45.50;;;;;;4991737;28;20220;-76
2022/07/06 13:01:55;;;;;;;1.75;1.65;;;26.60;45.40;;;;;;4975946;28;20221;-75
2022/07/06 13:04:22;;;;;;;4.25;1.80;;;26.60;45.50;;;;;;4975286;28;20268;-74
2022/07/06 13:06:49;;;;;;;2.45;2.20;;;26.50;44.80;;;;;;4975717;28;20221;-76
2022/07/06 13:09:16;;;;;;;4.28;2.58;;;26.50;44.60;;;;;;4976298;28;20504;-75